createdAt,value
2022-10-21T00:02:12.900Z,99356.64
2022-10-21T00:04:46.100Z,99353.25
2022-10-21T00:07:19.476Z,99347.08
2022-10-21T00:09:54.921Z,99344.45
2022-10-21T00:12:30.353Z,99341.05
2022-10-21T00:15:04.615Z,99341.77
2022-10-21T00:17:39.416Z,99339.80
2022-10-21T00:20:14.722Z,99332.01
2022-10-21T00:22:48.201Z,99322.34
2022-10-21T00:25:21.500Z,99318.56
2022-10-21T00:27:54.820Z,99325.13
2022-10-21T00:30:28.152Z,99320.53
2022-10-21T00:33:03.099Z,99321.99
2022-10-21T00:35:37.609Z,99316.41
2022-10-21T00:38:11.215Z,99315.23
2022-10-21T00:40:44.906Z,99315.58
2022-10-21T00:43:19.320Z,99313.44
2022-10-21T00:45:56.727Z,99314.02
2022-10-21T00:48:38.074Z,99318.14
2022-10-21T00:51:15.286Z,99315.63
2022-10-21T00:53:53.395Z,99321.80
2022-10-21T00:56:29.615Z,99319.42
2022-10-21T00:59:06.881Z,99316.16
2022-10-21T01:01:40.732Z,99313.58
2022-10-21T01:04:14.319Z,99321.48
2022-10-21T01:06:48.770Z,99321.58
2022-10-21T01:09:23.100Z,99311.93
2022-10-21T01:11:57.818Z,99322.64
2022-10-21T01:14:46.024Z,99325.34
2022-10-21T01:17:44.914Z,99321.95
2022-10-21T01:20:43.967Z,99327.22
2022-10-21T01:23:44.173Z,99328.78
2022-10-21T01:26:50.247Z,99322.77
2022-10-21T01:29:48.286Z,99315.73
2022-10-21T01:32:27.936Z,99312.19
2022-10-21T01:35:03.951Z,99320.73
2022-10-21T01:37:41.179Z,99319.11
2022-10-21T01:40:14.865Z,99317.34
2022-10-21T01:42:51.015Z,99319.43
2022-10-21T01:45:29.281Z,99320.30
2022-10-21T01:48:06.323Z,99325.45
2022-10-21T01:50:43.165Z,99319.48
2022-10-21T01:53:18.696Z,99323.02
2022-10-21T01:55:53.623Z,99327.42
2022-10-21T01:58:29.829Z,99315.40
2022-10-21T02:01:05.910Z,99316.21
2022-10-21T02:03:42.468Z,99328.29
2022-10-21T02:06:15.701Z,99324.03
2022-10-21T02:08:49.439Z,99323.13
2022-10-21T02:11:23.008Z,99316.36
2022-10-21T02:13:59.958Z,99318.18
2022-10-21T02:16:36.573Z,99313.95
2022-10-21T02:19:16.909Z,99325.16
2022-10-21T02:21:53.031Z,99321.63
2022-10-21T02:24:29.222Z,99327.59
2022-10-21T02:27:04.107Z,99330.98
2022-10-21T02:29:40.681Z,99328.55
2022-10-21T02:32:20.745Z,99328.66
2022-10-21T02:35:03.691Z,99334.83
2022-10-21T02:40:16.097Z,99338.16
2022-10-21T02:42:54.607Z,99327.15
2022-10-21T02:45:30.202Z,99337.60
2022-10-21T02:48:04.289Z,99335.02
2022-10-21T02:50:37.447Z,99334.18
2022-10-21T02:53:12.260Z,99326.53
2022-10-21T02:55:45.372Z,99327.41
2022-10-21T02:58:18.698Z,99316.13
2022-10-21T03:00:51.818Z,99326.34
2022-10-21T03:03:25.571Z,99328.10
2022-10-21T03:05:58.783Z,99327.29
2022-10-21T03:08:33.554Z,99310.17
2022-10-21T03:11:07.294Z,99315.47
2022-10-21T03:13:40.469Z,99329.22
2022-10-21T03:16:16.269Z,99327.52
2022-10-21T03:18:49.498Z,99333.68
2022-10-21T03:21:22.637Z,99332.00
2022-10-21T03:23:55.806Z,99336.25
2022-10-21T03:26:28.899Z,99334.44
2022-10-21T03:29:02.018Z,99337.83
2022-10-21T03:31:35.078Z,99340.41
2022-10-21T03:34:08.146Z,99340.49
2022-10-21T03:36:42.827Z,99339.48
2022-10-21T03:39:16.295Z,99337.77
2022-10-21T03:41:49.401Z,99345.45
2022-10-21T03:44:22.823Z,99338.47
2022-10-21T03:46:56.937Z,99346.26
2022-10-21T03:49:30.301Z,99342.00
2022-10-21T03:52:06.489Z,99336.76
2022-10-21T03:54:44.129Z,99348.84
2022-10-21T03:57:19.532Z,99341.10
2022-10-21T03:59:52.654Z,99340.84
2022-10-21T04:02:25.825Z,99342.76
2022-10-21T04:04:58.929Z,99342.81
2022-10-21T04:07:32.207Z,99342.76
2022-10-21T04:10:08.681Z,99342.81
2022-10-21T04:12:45.109Z,99337.72
2022-10-21T04:15:18.745Z,99334.33
2022-10-21T04:17:51.921Z,99340.34
2022-10-21T04:20:25.113Z,99348.03
2022-10-21T04:22:58.256Z,99342.06
2022-10-21T04:25:31.702Z,99346.41
2022-10-21T04:28:04.975Z,99343.06
2022-10-21T04:30:38.216Z,99345.70
2022-10-21T04:33:11.350Z,99356.02
2022-10-21T04:35:44.457Z,99355.20
2022-10-21T04:38:19.616Z,99346.63
2022-10-21T04:40:59.357Z,99339.90
2022-10-21T04:43:32.941Z,99341.72
2022-10-21T04:46:09.986Z,99340.86
2022-10-21T04:48:43.153Z,99348.59
2022-10-21T04:51:16.331Z,99347.83
2022-10-21T04:53:49.676Z,99355.68
2022-10-21T04:56:23.341Z,99337.68
2022-10-21T04:58:56.784Z,99347.30
2022-10-21T05:01:30.107Z,99348.35
2022-10-21T05:04:03.417Z,99345.97
2022-10-21T05:06:36.753Z,99347.84
2022-10-21T05:09:10.987Z,99346.22
2022-10-21T05:11:44.139Z,99348.09
2022-10-21T05:14:22.591Z,99359.47
2022-10-21T05:16:54.711Z,99355.36
2022-10-21T05:19:31.236Z,99342.62
2022-10-21T05:22:03.784Z,99346.20
2022-10-21T05:24:37.266Z,99357.58
2022-10-21T05:27:10.671Z,99358.45
2022-10-21T05:29:43.782Z,99356.05
2022-10-21T05:32:16.970Z,99363.90
2022-10-21T05:34:50.194Z,99364.95
2022-10-21T05:37:23.616Z,99365.14
2022-10-21T05:42:40.983Z,99376.33
2022-10-21T05:45:15.320Z,99385.55
2022-10-21T05:47:52.550Z,99381.36
2022-10-21T05:50:25.781Z,99381.59
2022-10-21T05:53:00.675Z,99379.23
2022-10-21T05:55:33.765Z,99388.90
2022-10-21T05:58:06.912Z,99392.43
2022-10-21T06:00:40.386Z,99387.22
2022-10-21T06:03:13.586Z,99398.36
2022-10-21T06:05:46.707Z,99395.69
2022-10-21T06:08:21.527Z,99396.50
2022-10-21T06:11:06.969Z,99396.59
2022-10-21T06:13:40.688Z,99398.41
2022-10-21T06:16:15.248Z,99403.62
2022-10-21T06:18:48.379Z,99404.58
2022-10-21T06:21:21.515Z,99402.23
2022-10-21T06:23:56.768Z,99399.02
2022-10-21T06:26:34.613Z,99398.65
2022-10-21T06:29:07.371Z,99399.37
2022-10-21T06:31:40.528Z,99393.08
2022-10-21T06:34:15.792Z,99389.03
2022-10-21T06:36:49.033Z,99389.03
2022-10-21T06:39:22.157Z,99389.03
2022-10-21T06:41:58.262Z,99383.13
2022-10-21T06:44:47.659Z,99376.48
2022-10-21T06:50:39.282Z,99382.02
2022-10-21T07:18:05.640Z,99367.41
2022-10-21T07:20:38.786Z,99367.33
2022-10-21T07:23:11.944Z,99369.51
2022-10-21T07:25:45.067Z,99367.14
2022-10-21T07:28:18.455Z,99373.30
2022-10-21T07:30:51.677Z,99377.62
2022-10-21T07:33:25.833Z,99379.38
2022-10-21T07:36:07.909Z,99388.73
2022-10-21T07:38:43.966Z,99394.66
2022-10-21T07:41:21.516Z,99391.02
2022-10-21T07:43:55.920Z,99392.56
2022-10-21T07:46:29.345Z,99400.41
2022-10-21T07:49:03.876Z,99398.64
2022-10-21T07:51:37.361Z,99402.92
2022-10-21T07:54:11.193Z,99401.16
2022-10-21T07:56:46.380Z,99403.74
2022-10-21T07:59:21.751Z,99402.13
2022-10-21T08:01:55.774Z,99404.95
2022-10-21T08:04:32.252Z,99397.26
2022-10-21T08:07:07.238Z,99396.47
2022-10-21T08:09:40.932Z,99402.92
2022-10-21T08:12:16.871Z,99398.79
2022-10-21T08:14:50.217Z,99399.72
2022-10-21T08:17:23.778Z,99392.78
2022-10-21T08:19:57.461Z,99388.53
2022-10-21T08:22:30.702Z,99392.92
2022-10-21T08:25:03.885Z,99388.20
2022-10-21T08:27:37.683Z,99383.87
2022-10-21T08:30:12.976Z,99388.27
2022-10-21T08:32:46.835Z,99374.94
2022-10-21T08:35:23.097Z,99366.77
2022-10-21T08:37:56.714Z,99366.66
2022-10-21T08:40:33.032Z,99371.70
2022-10-21T08:43:11.398Z,99368.98
2022-10-21T08:45:48.214Z,99369.67
2022-10-21T08:48:24.517Z,99367.48
2022-10-21T08:51:01.420Z,99372.16
2022-10-21T08:53:39.190Z,99369.73
2022-10-21T08:56:19.759Z,99371.65
2022-10-21T08:58:50.706Z,99378.03
2022-10-21T09:01:27.383Z,99374.59
2022-10-21T09:04:03.659Z,99366.44
2022-10-21T09:06:40.133Z,99375.08
2022-10-21T09:09:20.614Z,99376.87
2022-10-21T09:12:01.325Z,99378.55
2022-10-21T09:15:00.700Z,99374.11
2022-10-21T09:18:02.721Z,99370.70
2022-10-21T09:20:46.679Z,99371.20
2022-10-21T09:23:51.068Z,99371.16
2022-10-21T09:26:31.484Z,99380.28
2022-10-21T09:29:15.325Z,99377.55
2022-10-21T09:31:55.335Z,99377.63
2022-10-21T09:34:31.826Z,99379.45
2022-10-21T09:37:08.738Z,99387.09
2022-10-21T09:39:45.456Z,99385.95
2022-10-21T09:42:42.227Z,99380.38
2022-10-21T09:44:56.114Z,99380.91
2022-10-21T09:47:36.590Z,99381.45
2022-10-21T09:50:14.900Z,99384.77
2022-10-21T09:52:52.101Z,99395.12
2022-10-21T09:55:27.595Z,99393.25
2022-10-21T09:58:03.963Z,99393.62
2022-10-21T10:00:50.310Z,99392.41
2022-10-21T10:03:35.413Z,99381.92
2022-10-21T10:06:09.403Z,99386.09
2022-10-21T10:08:44.903Z,99379.14
2022-10-21T10:11:22.635Z,99393.88
2022-10-21T10:13:57.292Z,99387.12
2022-10-21T10:16:33.197Z,99379.83
2022-10-21T10:19:19.054Z,99372.73
2022-10-21T10:22:13.294Z,99373.95
2022-10-21T10:24:47.864Z,99369.65
2022-10-21T10:27:25.822Z,99367.13
2022-10-21T10:30:00.800Z,99361.13
2022-10-21T10:32:37.192Z,99352.95
2022-10-21T10:35:18.987Z,99351.19
2022-10-21T10:37:53.587Z,99351.30
2022-10-21T10:40:31.979Z,99347.73
2022-10-21T10:43:09.493Z,99351.01
2022-10-21T10:45:57.997Z,99348.94
2022-10-21T10:48:34.922Z,99330.56
2022-10-21T10:51:14.594Z,99356.62
2022-10-21T10:53:49.169Z,99348.86
2022-10-21T10:56:26.043Z,99348.86
2022-10-21T11:01:53.387Z,99352.44
2022-10-21T11:04:31.302Z,99353.63
2022-10-21T11:07:05.744Z,99345.78
2022-10-21T11:09:39.908Z,99350.97
2022-10-21T11:12:19.558Z,99352.41
2022-10-21T11:14:58.661Z,99354.98
2022-10-21T11:17:36.733Z,99353.99
2022-10-21T11:20:14.459Z,99352.05
2022-10-21T11:22:53.145Z,99351.16
2022-10-21T11:25:31.036Z,99346.80
2022-10-21T11:28:05.948Z,99349.27
2022-10-21T11:30:45.867Z,99330.36
2022-10-21T11:33:22.772Z,99328.51
2022-10-21T11:36:01.703Z,99327.77
2022-10-21T11:38:52.207Z,99329.52
2022-10-21T11:41:35.093Z,99325.08
2022-10-21T11:44:20.057Z,99320.60
2022-10-21T11:46:58.973Z,99324.24
2022-10-21T11:49:45.285Z,99320.81
2022-10-21T11:52:25.281Z,99324.19
2022-10-21T12:16:19.211Z,99318.50
2022-10-21T12:18:55.504Z,99310.84
2022-10-21T12:21:31.655Z,99317.08
2022-10-21T12:24:08.229Z,99315.50
2022-10-21T12:26:44.301Z,99311.41
2022-10-21T12:29:20.614Z,99309.59
2022-10-21T12:31:57.539Z,99318.22
2022-10-21T12:34:38.560Z,99315.80
2022-10-21T12:38:07.765Z,99312.40
2022-10-21T12:40:42.789Z,99305.47
2022-10-21T12:43:23.899Z,99301.29
2022-10-21T12:46:12.062Z,99308.24
2022-10-21T12:48:49.921Z,99291.54
2022-10-21T12:51:23.098Z,99302.88
2022-10-21T12:53:59.142Z,99308.99
2022-10-21T12:56:46.460Z,99307.95
2022-10-21T12:59:32.016Z,99304.52
2022-10-21T13:02:25.726Z,99296.05
2022-10-21T13:05:03.344Z,99291.05
2022-10-21T13:07:40.133Z,99299.79
2022-10-21T13:10:38.289Z,99306.69
2022-10-21T13:13:48.756Z,99291.05
2022-10-21T13:16:39.348Z,99295.14
2022-10-21T13:19:35.210Z,99297.66
2022-10-21T13:28:31.186Z,99296.08
2022-10-21T13:34:42.343Z,99304.53
2022-10-21T13:43:18.796Z,99314.69
2022-10-21T13:46:07.749Z,99320.75
2022-10-21T13:48:42.967Z,99317.00
2022-10-21T13:51:25.350Z,99329.03
2022-10-21T13:54:05.804Z,99323.05
2022-10-21T13:56:42.879Z,99331.02
2022-10-21T13:59:24.971Z,99332.81
2022-10-21T14:02:00.466Z,99337.17
2022-10-21T14:04:35.490Z,99336.21
2022-10-21T14:07:12.982Z,99350.94
2022-10-21T14:09:48.925Z,99348.34
2022-10-21T14:12:28.588Z,99351.78
2022-10-21T14:15:46.149Z,99355.17
2022-10-21T14:23:08.663Z,99351.88
2022-10-21T14:27:00.257Z,99364.52
2022-10-21T14:33:49.280Z,99363.02
2022-10-21T14:36:25.711Z,99355.56
2022-10-21T14:39:01.301Z,99358.16
2022-10-21T14:41:37.477Z,99346.02
2022-10-21T14:44:16.291Z,99347.02
2022-10-21T14:46:51.445Z,99347.16
2022-10-21T14:49:28.993Z,99346.42
2022-10-21T14:52:11.801Z,99354.27
2022-10-21T14:54:47.793Z,99348.12
2022-10-21T14:57:30.145Z,99345.45
2022-10-21T15:00:04.072Z,99352.38
2022-10-21T15:02:40.367Z,99356.62
2022-10-21T15:05:34.041Z,99366.11
2022-10-21T15:08:32.541Z,99366.87
2022-10-21T15:11:38.302Z,99365.90
2022-10-21T15:14:41.461Z,99371.88
2022-10-21T15:17:18.222Z,99370.13
2022-10-21T15:19:55.068Z,99368.36
2022-10-21T15:22:34.382Z,99370.05
2022-10-21T15:25:11.193Z,99378.59
2022-10-21T15:27:45.953Z,99377.66
2022-10-21T15:30:21.980Z,99375.13
2022-10-21T15:32:59.919Z,99372.47
2022-10-21T15:35:34.796Z,99369.80
2022-10-21T15:38:08.046Z,99372.26
2022-10-21T15:40:41.464Z,99371.28
2022-10-21T15:43:18.248Z,99377.23
2022-10-21T15:45:53.145Z,99377.91
2022-10-21T15:48:29.077Z,99374.20
2022-10-21T15:51:25.192Z,99376.53
2022-10-21T15:54:04.469Z,99378.94
2022-10-21T15:56:48.167Z,99377.09
2022-10-21T15:59:27.848Z,99379.69
2022-10-21T16:02:12.744Z,99377.13
2022-10-21T16:04:46.880Z,99380.66
2022-10-21T16:07:32.945Z,99380.70
2022-10-21T16:10:24.833Z,99379.88
2022-10-21T16:12:59.359Z,99381.52
2022-10-21T16:15:42.441Z,99385.92
2022-10-21T16:18:17.509Z,99379.05
2022-10-21T16:20:51.351Z,99389.41
2022-10-21T16:23:29.129Z,99384.23
2022-10-21T16:26:04.560Z,99387.64
2022-10-21T16:28:41.012Z,99386.86
2022-10-21T16:31:16.200Z,99388.62
2022-10-21T16:33:49.750Z,99387.64
2022-10-21T16:36:25.400Z,99388.51
2022-10-21T16:38:59.731Z,99386.78
2022-10-21T16:41:36.559Z,99391.06
2022-10-21T16:44:09.875Z,99390.23
2022-10-21T16:46:46.137Z,99389.41
2022-10-21T16:49:26.320Z,99379.91
2022-10-21T16:52:02.542Z,99372.17
2022-10-21T16:54:36.677Z,99373.91
2022-10-21T16:57:11.366Z,99376.49
2022-10-21T16:59:47.727Z,99384.30
2022-10-21T17:02:24.646Z,99383.44
2022-10-21T17:05:06.700Z,99383.40
2022-10-21T17:07:43.962Z,99393.69
2022-10-21T17:10:17.332Z,99393.66
2022-10-21T17:12:53.844Z,99403.19
2022-10-21T17:15:31.171Z,99395.41
2022-10-21T17:18:11.818Z,99396.16
2022-10-21T17:20:47.006Z,99398.72
2022-10-21T17:23:23.631Z,99389.22
2022-10-21T17:25:56.889Z,99384.86
2022-10-21T17:28:30.359Z,99379.56
2022-10-21T17:31:06.779Z,99382.95
2022-10-21T17:33:40.931Z,99376.83
2022-10-21T17:36:15.676Z,99364.70
2022-10-21T17:38:53.799Z,99370.78
2022-10-21T17:45:27.099Z,99365.64
2022-10-21T17:55:05.404Z,99378.59
2022-10-21T17:57:49.261Z,99375.10
2022-10-21T18:00:47.774Z,99376.00
2022-10-21T18:03:32.041Z,99383.02
2022-10-21T18:06:07.029Z,99383.06
2022-10-21T18:08:43.825Z,99384.00
2022-10-21T18:11:21.548Z,99385.80
2022-10-21T18:13:55.417Z,99385.80
2022-10-21T18:16:29.165Z,99384.98
2022-10-21T18:19:11.439Z,99388.43
2022-10-21T18:21:44.915Z,99386.70
2022-10-21T18:24:19.462Z,99385.05
2022-10-21T18:26:52.373Z,99389.45
2022-10-21T18:29:25.738Z,99393.84
2022-10-21T18:31:58.956Z,99388.70
2022-10-21T18:34:35.263Z,99393.91
2022-10-21T18:37:10.742Z,99393.05
2022-10-21T18:39:46.235Z,99410.28
2022-10-21T18:42:26.160Z,99405.06
2022-10-21T18:44:59.308Z,99407.66
2022-10-21T18:47:33.831Z,99404.16
2022-10-21T18:50:10.499Z,99409.42
2022-10-21T18:52:45.351Z,99407.77
2022-10-21T18:55:22.740Z,99412.05
2022-10-21T18:57:56.433Z,99403.38
2022-10-21T19:00:32.039Z,99411.11
2022-10-21T19:03:05.829Z,99413.63
2022-10-21T19:05:41.202Z,99411.83
2022-10-21T19:08:15.637Z,99403.11
2022-10-21T19:10:49.271Z,99406.52
2022-10-21T19:13:24.134Z,99411.70
2022-10-21T19:15:57.201Z,99407.39
2022-10-21T19:18:32.101Z,99413.47
2022-10-21T19:21:05.648Z,99425.48
2022-10-21T19:23:40.522Z,99422.89
2022-10-21T19:26:19.929Z,99422.94
2022-10-21T19:28:55.810Z,99426.42
2022-10-21T19:31:34.701Z,99415.20
2022-10-21T19:34:07.942Z,99423.88
2022-10-21T19:36:41.164Z,99420.39
2022-10-21T19:39:22.274Z,99420.22
2022-10-21T19:41:55.399Z,99420.90
2022-10-21T19:44:32.288Z,99413.72
2022-10-21T19:47:05.464Z,99413.55
2022-10-21T19:49:41.841Z,99415.08
2022-10-21T19:52:15.040Z,99420.92
2022-10-21T19:54:49.857Z,99414.77
2022-10-21T19:57:24.737Z,99425.81
2022-10-21T20:00:01.254Z,99422.07
2022-10-21T20:02:36.396Z,99423.63
2022-10-21T20:05:11.837Z,99425.23
2022-10-21T20:07:45.144Z,99436.20
2022-10-21T20:10:22.013Z,99437.70
2022-10-21T20:12:57.826Z,99434.98
2022-10-21T20:15:34.835Z,99438.39
2022-10-21T20:18:21.242Z,99437.70
2022-10-21T20:21:00.282Z,99437.02
2022-10-21T20:23:38.231Z,99443.34
2022-10-21T20:26:16.656Z,99438.42
2022-10-21T20:28:52.392Z,99442.95
2022-10-21T20:31:29.562Z,99447.52
2022-10-21T20:34:03.479Z,99453.72
2022-10-21T20:36:41.460Z,99449.45
2022-10-21T20:39:19.764Z,99453.06
2022-10-21T20:41:53.286Z,99451.50
2022-10-21T20:44:26.451Z,99455.07
2022-10-21T20:47:06.226Z,99449.69
2022-10-21T20:52:27.000Z,99443.80
2022-10-21T20:55:03.512Z,99451.17
2022-10-21T20:57:37.179Z,99445.98
2022-10-21T21:00:13.753Z,99446.81
2022-10-21T21:02:49.329Z,99450.19
2022-10-21T21:05:22.525Z,99452.64
2022-10-21T21:07:59.691Z,99444.77
2022-10-21T21:10:33.328Z,99448.25
2022-10-21T21:13:06.575Z,99444.77
2022-10-21T21:15:40.066Z,99452.57
2022-10-21T21:18:14.616Z,99451.70
2022-10-21T21:20:47.711Z,99443.11
2022-10-21T21:23:20.859Z,99450.14
2022-10-21T21:25:53.955Z,99447.59
2022-10-21T21:28:27.085Z,99451.95
2022-10-21T21:31:02.714Z,99451.91
2022-10-21T21:33:36.777Z,99451.79
2022-10-21T21:36:11.765Z,99456.88
2022-10-21T21:38:45.768Z,99458.52
2022-10-21T21:41:22.735Z,99454.25
2022-10-21T21:43:58.464Z,99462.83
2022-10-21T21:46:31.634Z,99460.04
2022-10-21T21:49:06.591Z,99457.27
2022-10-21T21:51:39.908Z,99461.34
2022-10-21T21:54:13.068Z,99459.44
2022-10-21T21:56:54.466Z,99468.80
2022-10-21T21:59:29.942Z,99467.89
2022-10-21T22:02:04.370Z,99463.53
2022-10-21T22:04:39.690Z,99466.13
2022-10-21T22:07:12.902Z,99461.72
2022-10-21T22:09:46.009Z,99462.50
2022-10-21T22:12:23.447Z,99462.41
2022-10-21T22:14:58.929Z,99464.91
2022-10-21T22:17:35.479Z,99464.05
2022-10-21T22:20:17.132Z,99464.87
2022-10-21T22:22:57.036Z,99461.55
2022-10-21T22:25:30.233Z,99462.59
2022-10-21T22:28:05.321Z,99466.21
2022-10-21T22:30:38.506Z,99463.02
2022-10-21T22:33:11.693Z,99465.91
2022-10-21T22:35:46.012Z,99472.11
2022-10-21T22:38:19.844Z,99471.42
2022-10-21T22:40:59.113Z,99475.05
2022-10-21T22:43:32.734Z,99476.12
2022-10-21T22:46:21.450Z,99465.84
2022-10-21T22:48:40.601Z,99477.22
2022-10-21T22:51:13.880Z,99480.77
2022-10-21T22:53:55.111Z,99478.29
2022-10-21T22:59:34.035Z,99466.91
2022-10-21T23:02:21.201Z,99473.89
2022-10-21T23:04:56.792Z,99473.11
2022-10-21T23:07:33.772Z,99460.21
2022-10-21T23:10:10.357Z,99463.78
2022-10-21T23:12:43.687Z,99466.45
2022-10-21T23:15:18.541Z,99461.27
2022-10-21T23:17:53.347Z,99456.09
2022-10-21T23:20:26.508Z,99459.42
2022-10-21T23:23:00.126Z,99458.36
2022-10-21T23:25:33.157Z,99453.02
2022-10-21T23:28:08.243Z,99462.55
2022-10-21T23:30:43.445Z,99459.09
2022-10-21T23:33:16.717Z,99460.78
2022-10-21T23:35:50.835Z,99458.98
2022-10-21T23:38:24.169Z,99460.54
2022-10-21T23:40:59.288Z,99460.50
2022-10-21T23:43:36.643Z,99460.50
2022-10-21T23:46:11.387Z,99468.27
2022-10-21T23:48:44.497Z,99459.63
2022-10-21T23:51:17.768Z,99456.19
2022-10-21T23:53:52.602Z,99446.73
2022-10-21T23:56:25.715Z,99453.67
2022-10-21T23:58:58.868Z,99454.54
